Aérodrome :
LOGIN :

S'inscrire | Disclaimer

   EN    FR    IT 

 










Légende :    VFR   VFR Marginal   IFR   IFR Intensif   IFR Très Intensif
Visi : 
Plafond : 
>= 8 km
>= 3000ft
5 à 8 km
1000 à 3000 ft
1500m à 5 km
500 à 1000 ft
800 à 1500m
200 à 500 ft
< 800m
< 200 ft
Symboles :   Orages  Brouillard  Fortes neiges  Fortes précipitations  Vent > 20 kt
SIGMETs :   Divers  Orages  Givrage  Turbulence  Onde Orograph.  Cendres Volcan.







- Altitude de l'aérodrome : 357 ft
- Code IATA : TUF
- Voir les cartes d'approche


LFOT - Tours

DERNIER METAR :
  • 180100Z AUTO 24011KT 9999 BKN008 BKN012 OVC018 07/07 Q1026 BECMG 3000 -DZRA OVC002

METARs EXPIRÉS :
  • 180030Z AUTO 24009KT 9999 BKN008 BKN013 BKN036 07/06 Q1026 BECMG 3000 -DZRA OVC002
  • 180000Z AUTO 24009KT 9999 FEW016 SCT025 BKN040 07/06 Q1027 BECMG 3000 -DZRA OVC002
  • 172330Z AUTO 24008KT 9999 FEW026 BKN038 OVC047 07/06 Q1027 BECMG 3000 -DZRA OVC002
  • 172300Z AUTO 24007KT 9999 SCT035 BKN041 OVC062 07/05 Q1028 BECMG 3000 -DZRA OVC002
  • 172230Z AUTO 24006KT 9999 FEW034 BKN058 OVC072 06/06 Q1028 BECMG 3000 -DZRA OVC002

TAF TAF LFOT
Valide du 18 à 00h jusqu'au 19 à 00h UTC


172300Z 1800/1824 24010KT 9999 BKN016
BECMG 1800/1802 3000 -DZRA OVC002
BECMG 1806/1809 32012KT 6000 NSW BKN004
BECMG 1809/1812 01012KT 9999 BKN020
BECMG 1814/1816 SCT025
Pas de NOTAMs connus pour ce terrain.



MET'MAP, la Météo Aéronautique d'un coup d'oeil ! - Copyright ORBIFLY Décembre 2007 - Disclaimer

ORBIFLY MET'MAP TEAM :

Programmation & Développement : Alexandra Zaïnal
Conception & Développement : Baudouin d'Aumeries
Co-Programmation & Développement : Marc-Olivier Méhu
Soutien technique & logistique : Manuel Goepfert

Contact : metmap@orbifly.com




SOURCES & CREDITS :

   NOAA